Aviation Digital Data Service (ADDS)

Output produced by METARs form (1252 UTC 26 March 2017)
found at http://www.aviationweather.gov/adds/metars/
 
KDEN 261123Z 2612/2718 35010KT P6SM VCSH SCT070 BKN120 
     FM261400 01012KT P6SM VCSH SCT030 BKN060 
     TEMPO 2614/2618 4SM -SHRA OVC030 
     FM261800 02014KT P6SM VCSH SCT030 BKN060 
     FM262100 02010KT P6SM VCSH SCT040 BKN060 
     FM270100 15007KT P6SM SCT060 BKN080 
     FM270400 20007KT P6SM FEW060 BKN120 
     FM271400 24006KT P6SM SCT120